Time;durP1;ratioP1;P1;durP2;ratioP2;P2;SDS_P1;SDS_P2;PMS_P1;PMS_P2;Temp;Humidity;BMP_temperature;BMP_pressure;BME280_temperature;BME280_humidity;BME280_pressure;Samples;Min_cycle;Max_cycle;Signal;HPM_P1;HPM_P2
2022/06/21 00:01:32;;;;;;;;;;;;;;;;;;4921619;29;19930;-80
2022/06/21 00:03:57;;;;;;;;;;;;;;;;;;4920789;29;19919;-80
2022/06/21 00:06:23;;;;;;;;;;;;;;;;;;4936442;29;20297;-80
2022/06/21 00:08:49;;;;;;;;;;;;;;;;;;4921898;29;19926;-80
2022/06/21 00:11:21;;;;;;;;;;;;;;;;;;4920694;29;19919;-80
2022/06/21 00:13:46;;;;;;;;;;;;;;;;;;4920164;29;19980;-81
2022/06/21 00:16:13;;;;;;;;;;;;;;;;;;4920560;29;19915;-80
2022/06/21 00:18:40;;;;;;;;;;;;;;;;;;4920838;29;19919;-80
2022/06/21 00:21:09;;;;;;;;;;;;;;;;;;4920377;29;19926;-80
2022/06/21 00:23:34;;;;;;;;;;;;;;;;;;4920547;29;19919;-80
2022/06/21 00:26:00;;;;;;;;;;;;;;;;;;4928689;29;20029;-80
2022/06/21 00:28:25;;;;;;;;;;;;;;;;;;4938685;28;19918;-80
2022/06/21 00:30:52;;;;;;;;;;;;;;;;;;4940891;29;19943;-80
2022/06/21 00:33:19;;;;;;;;;;;;;;;;;;4938909;29;19981;-80
2022/06/21 00:35:47;;;;;;;;;;;;;;;;;;4922955;28;19918;-80
2022/06/21 00:38:13;;;;;;;;;;;;;;;;;;4922475;29;19919;-80
2022/06/21 00:40:39;;;;;;;;;;;;;;;;;;4926053;29;20455;-80
2022/06/21 00:43:09;;;;;;;;;;;;;;;;;;4954732;29;19918;-80
2022/06/21 00:45:40;;;;;;;;;;;;;;;;;;4939725;29;20017;-81
2022/06/21 00:48:24;;;;;;;;;;;;;;;;;;4955540;28;19925;-80
2022/06/21 00:51:04;;;;;;;;;;;;;;;;;;4939680;29;19918;-81
2022/06/21 00:53:33;;;;;;;;;;;;;;;;;;4923073;29;19923;-80
2022/06/21 00:56:17;;;;;;;;;;;;;;;;;;4920972;29;20330;-81
2022/06/21 00:58:43;;;;;;;;;;;;;;;;;;4935509;29;20375;-81
2022/06/21 01:01:26;;;;;;;;;;;;;;;;;;4935401;29;19927;-81
2022/06/21 01:03:54;;;;;;;;;;;;;;;;;;4935666;29;20379;-81
2022/06/21 01:06:31;;;;;;;;;;;;;;;;;;4935427;28;19966;-81
2022/06/21 01:08:58;;;;;;;;;;;;;;;;;;4919797;29;19965;-81
2022/06/21 01:11:27;;;;;;;;;;;;;;;;;;4919940;29;19925;-81
2022/06/21 01:13:55;;;;;;;;;;;;;;;;;;4920499;29;19957;-81
2022/06/21 01:16:20;;;;;;;;;;;;;;;;;;4935394;29;19983;-81
2022/06/21 01:18:46;;;;;;;;;;;;;;;;;;4919657;29;20389;-81
2022/06/21 01:21:13;;;;;;;;;;;;;;;;;;4919486;29;19947;-81
2022/06/21 01:23:41;;;;;;;;;;;;;;;;;;4920442;29;19926;-81
2022/06/21 01:26:10;;;;;;;;;;;;;;;;;;4934825;29;19919;-81
2022/06/21 01:28:35;;;;;;;;;;;;;;;;;;4938849;29;20021;-81
2022/06/21 01:31:01;;;;;;;;;;;;;;;;;;4939517;29;19973;-81
2022/06/21 01:33:28;;;;;;;;;;;;;;;;;;4939558;29;19931;-81
2022/06/21 01:35:55;;;;;;;;;;;;;;;;;;4940202;29;20297;-81
2022/06/21 01:38:24;;;;;;;;;;;;;;;;;;4939526;29;19915;-80
2022/06/21 01:40:52;;;;;;;;;;;;;;;;;;4939049;29;19923;-80
2022/06/21 01:43:23;;;;;;;;;;;;;;;;;;4923230;29;19919;-80
2022/06/21 01:45:52;;;;;;;;;;;;;;;;;;4924302;29;19919;-81
2022/06/21 01:48:21;;;;;;;;;;;;;;;;;;4939976;28;19919;-81
2022/06/21 01:50:47;;;;;;;;;;;;;;;;;;4939681;29;19926;-81
2022/06/21 01:53:13;;;;;;;;;;;;;;;;;;4939534;29;19923;-81
2022/06/21 01:55:45;;;;;;;;;;;;;;;;;;4939176;28;19935;-80
2022/06/21 01:58:23;;;;;;;;;;;;;;;;;;4934946;28;19926;-80
2022/06/21 02:00:51;;;;;;;;;;;;;;;;;;4935556;29;19923;-81
2022/06/21 02:03:20;;;;;;;;;;;;;;;;;;4935430;29;20030;-81
2022/06/21 02:05:53;;;;;;;;;;;;;;;;;;4922038;29;19926;-81
2022/06/21 02:08:20;;;;;;;;;;;;;;;;;;4921162;29;19920;-81
2022/06/21 02:10:51;;;;;;;;;;;;;;;;;;4920533;29;19919;-81
2022/06/21 02:13:21;;;;;;;;;;;;;;;;;;4935790;29;19924;-82
2022/06/21 02:15:50;;;;;;;;;;;;;;;;;;4920287;29;20303;-80
2022/06/21 02:18:16;;;;;;;;;;;;;;;;;;4920323;29;20018;-80
2022/06/21 02:20:46;;;;;;;;;;;;;;;;;;4936128;29;19964;-82
2022/06/21 02:23:13;;;;;;;;;;;;;;;;;;4922326;29;19967;-82
2022/06/21 02:25:39;;;;;;;;;;;;;;;;;;4937617;29;19975;-82
2022/06/21 02:28:06;;;;;;;;;;;;;;;;;;4910970;29;19919;-82
2022/06/21 02:30:31;;;;;;;;;;;;;;;;;;4948144;28;19919;-82
2022/06/21 02:32:59;;;;;;;;;;;;;;;;;;4942112;29;20431;-81
2022/06/21 02:35:35;;;;;;;;;;;;;;;;;;4942158;29;19926;-81
2022/06/21 02:38:02;;;;;;;;;;;;;;;;;;4941195;29;20017;-81
2022/06/21 02:40:30;;;;;;;;;;;;;;;;;;4927728;29;19930;-82
2022/06/21 02:43:04;;;;;;;;;;;;;;;;;;4958539;29;19919;-82
2022/06/21 02:45:32;;;;;;;;;;;;;;;;;;4941722;29;19919;-81
2022/06/21 02:48:00;;;;;;;;;;;;;;;;;;4957292;28;19919;-82
2022/06/21 02:50:38;;;;;;;;;;;;;;;;;;4943103;29;19930;-82
2022/06/21 02:53:07;;;;;;;;;;;;;;;;;;4944887;29;20315;-81
2022/06/21 02:55:40;;;;;;;;;;;;;;;;;;4943747;29;19946;-82
2022/06/21 02:58:17;;;;;;;;;;;;;;;;;;4945954;29;19943;-83
2022/06/21 03:00:43;;;;;;;;;;;;;;;;;;4946115;29;19962;-83
2022/06/21 03:03:14;;;;;;;;;;;;;;;;;;4932586;29;19919;-83
2022/06/21 03:05:40;;;;;;;;;;;;;;;;;;4922898;29;20277;-78
2022/06/21 03:08:06;;;;;;;;;;;;;;;;;;4921509;29;19919;-79
2022/06/21 03:10:35;;;;;;;;;;;;;;;;;;4921856;29;20031;-78
2022/06/21 03:13:03;;;;;;;;;;;;;;;;;;4937792;28;19923;-79
2022/06/21 03:15:29;;;;;;;;;;;;;;;;;;4922676;29;19926;-78
2022/06/21 03:17:58;;;;;;;;;;;;;;;;;;4920939;29;19919;-79
2022/06/21 03:20:23;;;;;;;;;;;;;;;;;;4921716;29;19919;-79
2022/06/21 03:22:50;;;;;;;;;;;;;;;;;;4922102;29;19919;-79
2022/06/21 03:25:19;;;;;;;;;;;;;;;;;;4922084;29;19919;-79
2022/06/21 03:27:50;;;;;;;;;;;;;;;;;;4920763;29;20353;-79
2022/06/21 03:30:16;;;;;;;;;;;;;;;;;;4937574;29;19925;-79
2022/06/21 03:32:42;;;;;;;;;;;;;;;;;;4937465;29;19935;-79
2022/06/21 03:35:08;;;;;;;;;;;;;;;;;;4921790;29;19919;-79
2022/06/21 03:37:34;;;;;;;;;;;;;;;;;;4937731;29;19919;-80
2022/06/21 03:42:45;;;;;;;;;;;;;;;;;;4940497;28;20289;-80
2022/06/21 03:45:14;;;;;;;;;;;;;;;;;;4941132;29;19926;-79
2022/06/21 03:47:43;;;;;;;;;;;;;;;;;;4941698;29;19926;-79
2022/06/21 03:50:13;;;;;;;;;;;;;;;;;;4925874;29;19981;-80
2022/06/21 03:52:41;;;;;;;;;;;;;;;;;;4942609;29;19925;-79
2022/06/21 03:55:10;;;;;;;;;;;;;;;;;;4929142;29;20412;-80
2022/06/21 03:57:36;;;;;;;;;;;;;;;;;;4927794;29;19919;-80
2022/06/21 04:00:04;;;;;;;;;;;;;;;;;;4927314;29;19954;-80
2022/06/21 04:02:38;;;;;;;;;;;;;;;;;;4944808;29;19967;-80
2022/06/21 04:05:04;;;;;;;;;;;;;;;;;;4927966;29;20065;-80
2022/06/21 04:07:33;;;;;;;;;;;;;;;;;;4945722;29;19949;-80
2022/06/21 04:10:01;;;;;;;;;;;;;;;;;;4930114;29;19919;-80
2022/06/21 04:12:26;;;;;;;;;;;;;;;;;;4946453;29;19926;-81
2022/06/21 04:14:58;;;;;;;;;;;;;;;;;;4929333;29;19922;-81
2022/06/21 04:17:33;;;;;;;;;;;;;;;;;;4929269;29;19918;-80
2022/06/21 04:19:59;;;;;;;;;;;;;;;;;;4928606;28;19919;-81
2022/06/21 04:22:29;;;;;;;;;;;;;;;;;;4927800;29;19925;-80
2022/06/21 04:24:59;;;;;;;;;;;;;;;;;;4928321;29;19940;-80
2022/06/21 04:27:33;;;;;;;;;;;;;;;;;;4920432;29;20041;-80
2022/06/21 04:30:07;;;;;;;;;;;;;;;;;;4921075;29;19943;-80
2022/06/21 04:32:35;;;;;;;;;;;;;;;;;;4920232;29;19998;-80
2022/06/21 04:35:21;;;;;;;;;;;;;;;;;;4905250;29;19945;-80
2022/06/21 04:37:49;;;;;;;;;;;;;;;;;;4922024;29;19947;-80
2022/06/21 04:40:15;;;;;;;;;;;;;;;;;;4920311;29;19923;-80
2022/06/21 04:42:51;;;;;;;;;;;;;;;;;;4920876;29;19919;-80
2022/06/21 04:45:27;;;;;;;;;;;;;;;;;;4920885;29;19919;-80
2022/06/21 04:47:56;;;;;;;;;;;;;;;;;;4920301;29;19958;-80
2022/06/21 04:50:21;;;;;;;;;;;;;;;;;;4920329;29;19962;-80
2022/06/21 04:52:52;;;;;;;;;;;;;;;;;;4920236;29;20328;-79
2022/06/21 04:55:20;;;;;;;;;;;;;;;;;;4922587;29;20000;-79
2022/06/21 04:57:46;;;;;;;;;;;;;;;;;;4922837;28;20399;-79
2022/06/21 05:00:17;;;;;;;;;;;;;;;;;;4923361;29;20381;-79
2022/06/21 05:02:47;;;;;;;;;;;;;;;;;;4925291;29;19919;-79
2022/06/21 05:05:21;;;;;;;;;;;;;;;;;;4944702;29;20380;-79
2022/06/21 05:07:48;;;;;;;;;;;;;;;;;;4942966;29;19943;-79
2022/06/21 05:10:15;;;;;;;;;;;;;;;;;;4927723;29;20292;-79
2022/06/21 05:12:42;;;;;;;;;;;;;;;;;;4956802;29;19919;-79
2022/06/21 05:15:23;;;;;;;;;;;;;;;;;;4962312;29;19919;-79
2022/06/21 05:17:52;;;;;;;;;;;;;;;;;;4962786;29;19962;-79
2022/06/21 05:20:19;;;;;;;;;;;;;;;;;;4962532;29;19941;-79
2022/06/21 05:22:46;;;;;;;;;;;;;;;;;;4962008;28;19918;-79
2022/06/21 05:25:21;;;;;;;;;;;;;;;;;;4962128;28;20220;-79
2022/06/21 05:27:53;;;;;;;;;;;;;;;;;;4950536;29;19919;-79
2022/06/21 05:30:26;;;;;;;;;;;;;;;;;;4924779;29;19919;-79
2022/06/21 05:32:57;;;;;;;;;;;;;;;;;;4940444;29;19927;-80
2022/06/21 05:35:26;;;;;;;;;;;;;;;;;;4940213;28;19966;-80
2022/06/21 05:37:57;;;;;;;;;;;;;;;;;;4939544;29;19923;-80
2022/06/21 05:40:26;;;;;;;;;;;;;;;;;;4928800;29;19930;-79
2022/06/21 05:42:51;;;;;;;;;;;;;;;;;;4941185;29;19919;-79
2022/06/21 05:45:19;;;;;;;;;;;;;;;;;;4939770;28;19982;-81
2022/06/21 05:47:54;;;;;;;;;;;;;;;;;;4924935;29;19926;-80
2022/06/21 05:50:23;;;;;;;;;;;;;;;;;;4942383;28;19926;-81
2022/06/21 05:52:50;;;;;;;;;;;;;;;;;;4927234;29;20389;-81
2022/06/21 05:55:24;;;;;;;;;;;;;;;;;;4941263;29;20381;-80
2022/06/21 05:58:05;;;;;;;;;;;;;;;;;;4943084;29;20135;-81
2022/06/21 06:00:37;;;;;;;;;;;;;;;;;;4940036;29;19943;-80
2022/06/21 06:03:16;;;;;;;;;;;;;;;;;;4933855;28;19923;-80
2022/06/21 06:05:42;;;;;;;;;;;;;;;;;;4934206;29;19919;-80
2022/06/21 06:08:10;;;;;;;;;;;;;;;;;;4930309;28;20377;-78
2022/06/21 06:10:37;;;;;;;;;;;;;;;;;;4927387;29;19919;-79
2022/06/21 06:13:05;;;;;;;;;;;;;;;;;;4930593;29;19998;-78
2022/06/21 06:15:37;;;;;;;;;;;;;;;;;;4948365;29;20293;-79
2022/06/21 06:18:05;;;;;;;;;;;;;;;;;;4933711;29;19954;-79
2022/06/21 06:20:49;;;;;;;;;;;;;;;;;;4934436;29;19957;-79
2022/06/21 06:23:14;;;;;;;;;;;;;;;;;;4956201;28;19918;-80
2022/06/21 06:25:43;;;;;;;;;;;;;;;;;;4942168;28;20341;-80
2022/06/21 06:28:18;;;;;;;;;;;;;;;;;;4928305;29;19926;-81
2022/06/21 06:30:55;;;;;;;;;;;;;;;;;;4928885;29;20399;-81
2022/06/21 06:33:23;;;;;;;;;;;;;;;;;;4928351;29;20017;-81
2022/06/21 06:35:49;;;;;;;;;;;;;;;;;;4927379;28;19925;-80
2022/06/21 06:38:15;;;;;;;;;;;;;;;;;;4927013;29;19919;-82
2022/06/21 06:40:53;;;;;;;;;;;;;;;;;;4927261;29;19923;-82
2022/06/21 06:43:27;;;;;;;;;;;;;;;;;;4943811;29;19926;-83
2022/06/21 06:45:55;;;;;;;;;;;;;;;;;;4926686;29;19919;-80
2022/06/21 06:48:26;;;;;;;;;;;;;;;;;;4926389;29;19927;-81
2022/06/21 06:51:03;;;;;;;;;;;;;;;;;;4941589;29;19925;-82
2022/06/21 06:53:36;;;;;;;;;;;;;;;;;;4926596;29;19923;-81
2022/06/21 06:56:03;;;;;;;;;;;;;;;;;;4924732;29;20006;-82
2022/06/21 06:58:34;;;;;;;;;;;;;;;;;;4926663;29;20300;-81
2022/06/21 07:01:03;;;;;;;;;;;;;;;;;;4926755;29;19989;-82
2022/06/21 07:03:33;;;;;;;;;;;;;;;;;;4926615;29;19919;-82
2022/06/21 07:05:58;;;;;;;;;;;;;;;;;;4909613;29;19925;-82
2022/06/21 07:08:26;;;;;;;;;;;;;;;;;;4941520;29;19919;-79
2022/06/21 07:10:53;;;;;;;;;;;;;;;;;;4942164;28;19929;-79
2022/06/21 07:13:19;;;;;;;;;;;;;;;;;;4941486;29;19930;-79
2022/06/21 07:15:46;;;;;;;;;;;;;;;;;;4942069;28;19919;-81
2022/06/21 07:18:19;;;;;;;;;;;;;;;;;;4941200;29;19929;-83
2022/06/21 07:20:45;;;;;;;;;;;;;;;;;;4940406;28;19943;-83
2022/06/21 07:23:15;;;;;;;;;;;;;;;;;;4938879;29;19926;-80
2022/06/21 07:25:41;;;;;;;;;;;;;;;;;;4936786;28;19918;-82
2022/06/21 07:28:09;;;;;;;;;;;;;;;;;;4924608;29;19970;-80
2022/06/21 07:30:39;;;;;;;;;;;;;;;;;;4941064;29;19919;-83
2022/06/21 07:33:08;;;;;;;;;;;;;;;;;;4940031;29;19978;-81
2022/06/21 07:35:35;;;;;;;;;;;;;;;;;;4940128;29;19919;-82
2022/06/21 07:38:04;;;;;;;;;;;;;;;;;;4940899;29;19925;-82
2022/06/21 07:40:50;;;;;;;;;;;;;;;;;;4939628;29;19938;-83
2022/06/21 07:43:25;;;;;;;;;;;;;;;;;;4940851;28;19919;-83
2022/06/21 07:45:55;;;;;;;;;;;;;;;;;;4924700;29;19925;-84
2022/06/21 07:48:24;;;;;;;;;;;;;;;;;;4941305;29;19919;-84
2022/06/21 07:50:55;;;;;;;;;;;;;;;;;;4940113;29;20511;-78
2022/06/21 07:53:24;;;;;;;;;;;;;;;;;;4940717;28;19970;-83
2022/06/21 07:55:53;;;;;;;;;;;;;;;;;;4939928;29;20005;-82
2022/06/21 07:58:31;;;;;;;;;;;;;;;;;;4924651;29;19946;-82
2022/06/21 08:06:43;;;;;;;;;;;;;;;;;;4941691;28;19919;-83
2022/06/21 08:09:15;;;;;;;;;;;;;;;;;;4940954;29;19918;-83
2022/06/21 08:11:42;;;;;;;;;;;;;;;;;;4940110;29;19986;-83
2022/06/21 08:14:07;;;;;;;;;;;;;;;;;;4927384;29;20353;-83
2022/06/21 08:16:43;;;;;;;;;;;;;;;;;;4942906;29;20002;-86
2022/06/21 08:19:12;;;;;;;;;;;;;;;;;;4926688;29;20391;-84
2022/06/21 08:21:41;;;;;;;;;;;;;;;;;;4926348;29;20292;-83
2022/06/21 08:24:11;;;;;;;;;;;;;;;;;;4926766;29;19919;-84
2022/06/21 08:27:02;;;;;;;;;;;;;;;;;;4925295;29;19919;-84
2022/06/21 08:29:33;;;;;;;;;;;;;;;;;;4925934;29;19918;-84
2022/06/21 08:32:09;;;;;;;;;;;;;;;;;;4925050;28;19920;-83
2022/06/21 08:34:46;;;;;;;;;;;;;;;;;;4925581;29;19923;-84
2022/06/21 08:37:27;;;;;;;;;;;;;;;;;;4925015;29;19919;-84
2022/06/21 08:39:59;;;;;;;;;;;;;;;;;;4924882;29;19918;-84
2022/06/21 08:42:42;;;;;;;;;;;;;;;;;;4924819;29;20373;-82
2022/06/21 08:45:42;;;;;;;;;;;;;;;;;;4924510;29;20013;-82
2022/06/21 08:48:23;;;;;;;;;;;;;;;;;;4925325;29;19919;-82
2022/06/21 08:50:54;;;;;;;;;;;;;;;;;;4924594;29;19926;-82
2022/06/21 08:53:26;;;;;;;;;;;;;;;;;;4923917;29;19961;-81
2022/06/21 08:56:04;;;;;;;;;;;;;;;;;;4941079;29;19925;-82
2022/06/21 08:58:44;;;;;;;;;;;;;;;;;;4942298;29;19918;-83
2022/06/21 09:01:12;;;;;;;;;;;;;;;;;;4942370;28;19919;-84
2022/06/21 09:03:38;;;;;;;;;;;;;;;;;;4943249;29;19919;-81
2022/06/21 09:06:11;;;;;;;;;;;;;;;;;;4942868;29;20372;-84
2022/06/21 09:08:55;;;;;;;;;;;;;;;;;;4943809;29;19918;-81
2022/06/21 09:11:32;;;;;;;;;;;;;;;;;;4941840;28;19919;-81
2022/06/21 09:14:01;;;;;;;;;;;;;;;;;;4938870;29;19929;-80
2022/06/21 09:16:46;;;;;;;;;;;;;;;;;;4938196;29;19962;-78
2022/06/21 09:19:31;;;;;;;;;;;;;;;;;;4938656;29;20307;-80
2022/06/21 09:22:03;;;;;;;;;;;;;;;;;;4938576;29;20340;-79
2022/06/21 09:24:31;;;;;;;;;;;;;;;;;;4936588;29;19966;-77
2022/06/21 09:27:02;;;;;;;;;;;;;;;;;;4938655;29;19919;-81
2022/06/21 09:29:46;;;;;;;;;;;;;;;;;;4923641;29;19962;-79
2022/06/21 09:32:20;;;;;;;;;;;;;;;;;;4940304;29;20400;-81
2022/06/21 09:35:00;;;;;;;;;;;;;;;;;;4939885;28;19927;-82
2022/06/21 09:37:32;;;;;;;;;;;;;;;;;;4954242;29;19919;-82
2022/06/21 09:40:05;;;;;;;;;;;;;;;;;;4939285;29;19919;-81
2022/06/21 09:42:34;;;;;;;;;;;;;;;;;;4954321;28;20021;-80
2022/06/21 09:45:16;;;;;;;;;;;;;;;;;;4955576;29;19930;-80
2022/06/21 09:47:57;;;;;;;;;;;;;;;;;;4940049;28;19925;-82
2022/06/21 09:50:52;;;;;;;;;;;;;;;;;;4942965;29;19923;-81
2022/06/21 09:53:32;;;;;;;;;;;;;;;;;;4918305;29;19927;-80
2022/06/21 09:56:09;;;;;;;;;;;;;;;;;;4907674;29;19919;-81
2022/06/21 09:58:58;;;;;;;;;;;;;;;;;;4923606;29;19975;-78
2022/06/21 10:01:24;;;;;;;;;;;;;;;;;;4905485;29;19919;-78
2022/06/21 10:03:55;;;;;;;;;;;;;;;;;;4921678;28;19942;-78
2022/06/21 10:06:41;;;;;;;;;;;;;;;;;;4921597;29;21843;-78
2022/06/21 10:09:23;;;;;;;;;;;;;;;;;;4922316;29;19919;-77
2022/06/21 10:12:12;;;;;;;;;;;;;;;;;;4921832;29;20300;-78
2022/06/21 10:14:56;;;;;;;;;;;;;;;;;;4906635;29;20381;-77
2022/06/21 10:17:22;;;;;;;;;;;;;;;;;;4920618;29;19925;-77
2022/06/21 10:19:53;;;;;;;;;;;;;;;;;;4919224;29;19923;-77
2022/06/21 10:22:24;;;;;;;;;;;;;;;;;;4919744;29;20297;-77
2022/06/21 10:24:58;;;;;;;;;;;;;;;;;;4958085;29;20376;-78
2022/06/21 10:27:38;;;;;;;;;;;;;;;;;;4959910;29;19977;-78
2022/06/21 10:30:15;;;;;;;;;;;;;;;;;;4957608;29;19918;-76
2022/06/21 10:32:44;;;;;;;;;;;;;;;;;;4957611;28;19925;-76
2022/06/21 10:35:17;;;;;;;;;;;;;;;;;;4957692;29;19969;-76
2022/06/21 10:37:42;;;;;;;;;;;;;;;;;;4957202;29;19929;-76
2022/06/21 10:40:10;;;;;;;;;;;;;;;;;;4956769;29;20389;-76
2022/06/21 10:42:50;;;;;;;;;;;;;;;;;;4940769;29;19922;-76
2022/06/21 10:45:21;;;;;;;;;;;;;;;;;;4956526;28;19918;-76
2022/06/21 10:47:56;;;;;;;;;;;;;;;;;;4940480;29;19934;-76
2022/06/21 10:50:21;;;;;;;;;;;;;;;;;;4940577;29;20281;-76
2022/06/21 10:52:49;;;;;;;;;;;;;;;;;;4953800;28;19926;-76
2022/06/21 10:55:21;;;;;;;;;;;;;;;;;;4920876;29;20373;-76
2022/06/21 10:57:55;;;;;;;;;;;;;;;;;;4937177;29;19919;-76
2022/06/21 11:03:40;;;;;;;;;;;;;;;;;;4937144;28;19966;-76
2022/06/21 11:06:20;;;;;;;;;;;;;;;;;;4887140;29;19958;-76
2022/06/21 11:08:57;;;;;;;;;;;;;;;;;;4938402;29;19914;-76
2022/06/21 11:11:31;;;;;;;;;;;;;;;;;;4937953;29;19966;-76
2022/06/21 11:14:15;;;;;;;;;;;;;;;;;;4937752;29;19922;-78
2022/06/21 11:16:43;;;;;;;;;;;;;;;;;;4938646;29;20649;-77
2022/06/21 11:19:14;;;;;;;;;;;;;;;;;;4939533;29;19919;-76
2022/06/21 11:21:42;;;;;;;;;;;;;;;;;;4937195;28;19966;-77
2022/06/21 11:24:31;;;;;;;;;;;;;;;;;;4938991;29;20513;-77
2022/06/21 11:27:04;;;;;;;;;;;;;;;;;;4939400;29;19923;-77
2022/06/21 11:29:44;;;;;;;;;;;;;;;;;;4937258;29;20353;-77
2022/06/21 11:32:31;;;;;;;;;;;;;;;;;;4938149;28;19922;-77
2022/06/21 11:35:13;;;;;;;;;;;;;;;;;;4938138;28;19967;-78
2022/06/21 11:37:39;;;;;;;;;;;;;;;;;;4938649;29;19918;-78
2022/06/21 11:40:05;;;;;;;;;;;;;;;;;;4938846;29;19926;-78
2022/06/21 11:42:30;;;;;;;;;;;;;;;;;;4938421;29;20320;-78
2022/06/21 11:45:14;;;;;;;;;;;;;;;;;;4939064;29;20262;-78
2022/06/21 11:47:50;;;;;;;;;;;;;;;;;;4938464;28;20013;-78
2022/06/21 11:50:18;;;;;;;;;;;;;;;;;;4921785;29;19925;-80
2022/06/21 11:52:43;;;;;;;;;;;;;;;;;;4939634;29;19919;-80
2022/06/21 11:55:08;;;;;;;;;;;;;;;;;;4939840;29;19990;-79
2022/06/21 11:57:34;;;;;;;;;;;;;;;;;;4945431;29;19973;-79
2022/06/21 12:00:05;;;;;;;;;;;;;;;;;;4942619;29;19922;-80
2022/06/21 12:02:38;;;;;;;;;;;;;;;;;;4942298;28;19923;-80
2022/06/21 12:05:09;;;;;;;;;;;;;;;;;;4920286;29;19923;-80
2022/06/21 12:07:39;;;;;;;;;;;;;;;;;;4920375;29;20017;-80
2022/06/21 12:10:18;;;;;;;;;;;;;;;;;;4904711;29;20009;-80
2022/06/21 12:12:57;;;;;;;;;;;;;;;;;;4936280;29;19969;-80
2022/06/21 12:15:35;;;;;;;;;;;;;;;;;;4920894;29;19923;-80
2022/06/21 12:18:10;;;;;;;;;;;;;;;;;;4905324;29;19926;-80
2022/06/21 12:20:47;;;;;;;;;;;;;;;;;;4920174;29;19958;-80
2022/06/21 12:23:25;;;;;;;;;;;;;;;;;;4904749;29;19930;-80
2022/06/21 12:25:51;;;;;;;;;;;;;;;;;;4920792;29;19951;-80
2022/06/21 12:28:24;;;;;;;;;;;;;;;;;;4921096;29;19919;-80
2022/06/21 12:30:51;;;;;;;;;;;;;;;;;;4958146;29;19942;-80
2022/06/21 12:33:18;;;;;;;;;;;;;;;;;;4959472;29;19922;-80
2022/06/21 12:35:49;;;;;;;;;;;;;;;;;;4959262;29;19999;-80
2022/06/21 12:38:20;;;;;;;;;;;;;;;;;;4943314;28;19969;-80
2022/06/21 12:40:50;;;;;;;;;;;;;;;;;;4959275;28;19958;-80
2022/06/21 12:43:32;;;;;;;;;;;;;;;;;;4960225;28;19969;-80
2022/06/21 12:46:07;;;;;;;;;;;;;;;;;;4958660;29;19925;-80
2022/06/21 12:48:35;;;;;;;;;;;;;;;;;;4959863;28;19919;-80
2022/06/21 12:51:11;;;;;;;;;;;;;;;;;;4958845;28;20288;-80
2022/06/21 12:54:01;;;;;;;;;;;;;;;;;;4957618;29;19930;-80
2022/06/21 12:56:46;;;;;;;;;;;;;;;;;;4958211;29;20021;-80
2022/06/21 12:59:26;;;;;;;;;;;;;;;;;;4957985;28;19919;-80
2022/06/21 13:01:58;;;;;;;;;;;;;;;;;;4958649;29;19925;-80
2022/06/21 13:04:29;;;;;;;;;;;;;;;;;;4946896;29;19962;-80
2022/06/21 13:07:03;;;;;;;;;;;;;;;;;;4940314;29;20387;-80
2022/06/21 13:09:32;;;;;;;;;;;;;;;;;;4940135;29;20325;-81
2022/06/21 13:12:16;;;;;;;;;;;;;;;;;;4923849;29;19926;-79
2022/06/21 13:14:58;;;;;;;;;;;;;;;;;;4921962;29;19923;-79
2022/06/21 13:17:42;;;;;;;;;;;;;;;;;;4923180;29;19973;-79
2022/06/21 13:20:26;;;;;;;;;;;;;;;;;;4938420;28;19958;-79
2022/06/21 13:23:01;;;;;;;;;;;;;;;;;;4940225;29;19918;-79
2022/06/21 13:25:26;;;;;;;;;;;;;;;;;;4926236;29;19918;-79
2022/06/21 13:28:10;;;;;;;;;;;;;;;;;;4925137;29;19950;-79
2022/06/21 13:30:54;;;;;;;;;;;;;;;;;;4942256;29;20381;-79
2022/06/21 13:33:23;;;;;;;;;;;;;;;;;;4941067;28;20009;-79
2022/06/21 13:36:08;;;;;;;;;;;;;;;;;;4943489;29;19922;-80
2022/06/21 13:39:00;;;;;;;;;;;;;;;;;;4941483;28;19919;-79
2022/06/21 13:44:23;;;;;;;;;;;;;;;;;;4939738;28;19925;-79
2022/06/21 13:46:50;;;;;;;;;;;;;;;;;;4942079;29;19919;-79
2022/06/21 13:49:19;;;;;;;;;;;;;;;;;;4942180;29;19985;-79
2022/06/21 13:51:47;;;;;;;;;;;;;;;;;;4941971;28;19925;-79
2022/06/21 13:54:16;;;;;;;;;;;;;;;;;;4940627;29;19978;-79
2022/06/21 13:56:41;;;;;;;;;;;;;;;;;;4942182;29;20013;-79
2022/06/21 13:59:11;;;;;;;;;;;;;;;;;;4925194;29;19962;-79
2022/06/21 14:01:39;;;;;;;;;;;;;;;;;;4925815;29;19926;-79
2022/06/21 14:04:13;;;;;;;;;;;;;;;;;;4942054;29;19919;-82
2022/06/21 14:06:47;;;;;;;;;;;;;;;;;;4944214;29;19969;-82
2022/06/21 14:09:18;;;;;;;;;;;;;;;;;;4924462;28;19938;-79
2022/06/21 14:11:51;;;;;;;;;;;;;;;;;;4939996;29;19925;-77
2022/06/21 14:14:17;;;;;;;;;;;;;;;;;;4939770;29;19930;-77
2022/06/21 14:16:56;;;;;;;;;;;;;;;;;;4935246;29;19919;-77
2022/06/21 14:19:33;;;;;;;;;;;;;;;;;;4920083;29;19941;-77
2022/06/21 14:22:07;;;;;;;;;;;;;;;;;;4935865;28;19919;-77
2022/06/21 14:24:44;;;;;;;;;;;;;;;;;;4936397;28;19938;-77
2022/06/21 14:27:19;;;;;;;;;;;;;;;;;;4920383;29;20039;-77
2022/06/21 14:29:47;;;;;;;;;;;;;;;;;;4938643;29;19918;-77
2022/06/21 14:32:16;;;;;;;;;;;;;;;;;;4939083;29;20036;-77
2022/06/21 14:34:46;;;;;;;;;;;;;;;;;;4923183;29;20337;-77
2022/06/21 14:37:24;;;;;;;;;;;;;;;;;;4923268;28;20014;-77
2022/06/21 14:40:06;;;;;;;;;;;;;;;;;;4939356;29;19923;-77
2022/06/21 14:42:38;;;;;;;;;;;;;;;;;;4939619;29;19927;-77
2022/06/21 14:45:19;;;;;;;;;;;;;;;;;;4923134;29;20409;-77
2022/06/21 14:47:47;;;;;;;;;;;;;;;;;;4939828;29;19966;-77
2022/06/21 14:50:19;;;;;;;;;;;;;;;;;;4922707;29;20297;-77
2022/06/21 14:52:50;;;;;;;;;;;;;;;;;;4922524;29;19986;-77
2022/06/21 14:55:20;;;;;;;;;;;;;;;;;;4922545;29;20373;-77
2022/06/21 14:58:01;;;;;;;;;;;;;;;;;;4938832;29;19921;-77
2022/06/21 15:00:36;;;;;;;;;;;;;;;;;;4938940;29;19919;-77
2022/06/21 15:03:20;;;;;;;;;;;;;;;;;;4939210;29;19919;-77
2022/06/21 15:05:50;;;;;;;;;;;;;;;;;;4938303;28;19925;-77
2022/06/21 15:08:29;;;;;;;;;;;;;;;;;;4939795;29;19919;-77
2022/06/21 15:11:00;;;;;;;;;;;;;;;;;;4923242;29;19918;-77
2022/06/21 15:13:34;;;;;;;;;;;;;;;;;;4939014;29;20353;-75
2022/06/21 15:16:15;;;;;;;;;;;;;;;;;;4937958;29;19926;-76
2022/06/21 15:18:48;;;;;;;;;;;;;;;;;;4936992;29;19923;-74
2022/06/21 15:21:15;;;;;;;;;;;;;;;;;;4937874;29;19918;-73
2022/06/21 15:24:02;;;;;;;;;;;;;;;;;;4936537;29;19958;-74
2022/06/21 15:26:35;;;;;;;;;;;;;;;;;;4937617;29;19922;-74
2022/06/21 15:29:19;;;;;;;;;;;;;;;;;;4920370;29;19919;-74
2022/06/21 15:31:47;;;;;;;;;;;;;;;;;;4936443;28;19922;-74
2022/06/21 15:34:31;;;;;;;;;;;;;;;;;;4937719;29;19927;-74
2022/06/21 15:36:56;;;;;;;;;;;;;;;;;;4936295;29;19986;-74
2022/06/21 15:39:37;;;;;;;;;;;;;;;;;;4938374;29;19922;-74
2022/06/21 15:42:18;;;;;;;;;;;;;;;;;;4955166;29;20388;-74
2022/06/21 15:44:49;;;;;;;;;;;;;;;;;;4939214;29;19922;-74
2022/06/21 15:50:13;;;;;;;;;;;;;;;;;;4956513;29;19918;-74
2022/06/21 15:52:57;;;;;;;;;;;;;;;;;;4956268;28;20352;-74
2022/06/21 15:55:39;;;;;;;;;;;;;;;;;;4950490;29;19927;-74
2022/06/21 15:58:10;;;;;;;;;;;;;;;;;;4920150;29;20347;-75
2022/06/21 16:00:35;;;;;;;;;;;;;;;;;;4920113;29;19919;-74
2022/06/21 16:03:07;;;;;;;;;;;;;;;;;;4936014;29;20246;-74
2022/06/21 16:05:35;;;;;;;;;;;;;;;;;;4935970;29;19923;-74
2022/06/21 16:08:21;;;;;;;;;;;;;;;;;;4936080;29;19919;-75
2022/06/21 16:10:47;;;;;;;;;;;;;;;;;;4936530;29;20361;-74
2022/06/21 16:13:21;;;;;;;;;;;;;;;;;;4919438;29;19933;-76
2022/06/21 16:15:49;;;;;;;;;;;;;;;;;;4936660;29;19919;-75
2022/06/21 16:18:15;;;;;;;;;;;;;;;;;;4919917;29;19925;-74
2022/06/21 16:20:45;;;;;;;;;;;;;;;;;;4919670;28;19915;-74
2022/06/21 16:23:20;;;;;;;;;;;;;;;;;;4936810;29;19963;-74
2022/06/21 16:25:50;;;;;;;;;;;;;;;;;;4927621;29;19920;-74
2022/06/21 16:28:25;;;;;;;;;;;;;;;;;;4955594;28;20368;-74
2022/06/21 16:33:12;;;;;;;;;;;;;;;;;;4955086;28;20361;-74
2022/06/21 16:33:44;;;;;;;;;;;;;;;;;;4955771;28;19922;-74
2022/06/21 16:36:15;;;;;;;;;;;;;;;;;;4954810;29;19918;-73
2022/06/21 16:38:49;;;;;;;;;;;;;;;;;;4954442;29;19941;-73
2022/06/21 16:44:02;;;;;;;;;;;;;;;;;;4955626;29;20058;-74
2022/06/21 16:46:41;;;;;;;;;;;;;;;;;;4954450;29;19934;-74
2022/06/21 16:49:12;;;;;;;;;;;;;;;;;;4954572;29;19919;-74
2022/06/21 16:51:43;;;;;;;;;;;;;;;;;;4954600;28;19963;-74
2022/06/21 16:54:22;;;;;;;;;;;;;;;;;;4954457;28;19922;-74
2022/06/21 16:56:48;;;;;;;;;;;;;;;;;;4938226;29;19922;-74
2022/06/21 16:59:15;;;;;;;;;;;;;;;;;;4938609;29;19915;-74
2022/06/21 17:01:49;;;;;;;;;;;;;;;;;;4923538;29;20305;-74
2022/06/21 17:04:17;;;;;;;;;;;;;;;;;;4940558;29;19962;-74
2022/06/21 17:06:46;;;;;;;;;;;;;;;;;;4923429;29;20292;-74
2022/06/21 17:09:15;;;;;;;;;;;;;;;;;;4923570;29;19919;-74
2022/06/21 17:11:48;;;;;;;;;;;;;;;;;;4940577;29;19947;-74
2022/06/21 17:14:14;;;;;;;;;;;;;;;;;;4939866;29;19923;-73
2022/06/21 17:16:53;;;;;;;;;;;;;;;;;;4940437;29;19941;-74
2022/06/21 17:19:19;;;;;;;;;;;;;;;;;;4939081;29;19925;-74
2022/06/21 17:21:53;;;;;;;;;;;;;;;;;;4940299;29;19958;-74
2022/06/21 17:24:33;;;;;;;;;;;;;;;;;;4937541;29;19923;-75
2022/06/21 17:27:17;;;;;;;;;;;;;;;;;;4938882;29;19919;-76
2022/06/21 17:29:51;;;;;;;;;;;;;;;;;;4939853;29;20357;-77
2022/06/21 17:32:18;;;;;;;;;;;;;;;;;;4940174;29;19919;-77
2022/06/21 17:34:53;;;;;;;;;;;;;;;;;;4956050;29;19977;-77
2022/06/21 17:37:32;;;;;;;;;;;;;;;;;;4959147;29;20288;-76
2022/06/21 17:40:19;;;;;;;;;;;;;;;;;;4958643;29;20443;-78